Time;durP1;ratioP1;P1;durP2;ratioP2;P2;SDS_P1;SDS_P2;PMS_P1;PMS_P2;Temp;Humidity;BMP_temperature;BMP_pressure;BME280_temperature;BME280_humidity;BME280_pressure;Samples;Min_cycle;Max_cycle;Signal;HPM_P1;HPM_P2
2021/03/25 00:00:42;;;;;;;106.25;43.17;;;4.80;99.90;;;;;;4981222;28;20660;-64
2021/03/25 00:03:13;;;;;;;97.53;40.55;;;4.90;99.90;;;;;;4979961;28;20129;-64
2021/03/25 00:05:39;;;;;;;100.68;40.75;;;4.80;99.90;;;;;;4977759;28;20057;-64
2021/03/25 00:08:07;;;;;;;113.55;44.15;;;4.80;99.90;;;;;;4980224;28;20096;-63
2021/03/25 00:10:36;;;;;;;108.57;42.85;;;4.90;99.90;;;;;;4978865;28;20065;-66
2021/03/25 00:13:02;;;;;;;105.50;41.72;;;4.90;99.90;;;;;;4979525;28;20729;-63
2021/03/25 00:15:29;;;;;;;100.93;40.85;;;5.00;99.90;;;;;;4978559;28;20410;-63
2021/03/25 00:17:55;;;;;;;99.53;40.45;;;5.10;99.90;;;;;;4979019;28;20339;-64
2021/03/25 00:20:22;;;;;;;93.57;37.35;;;5.20;99.90;;;;;;4961237;28;20045;-64
2021/03/25 00:22:48;;;;;;;98.47;39.83;;;5.20;99.90;;;;;;4978549;28;20066;-65
2021/03/25 00:25:21;;;;;;;103.35;41.70;;;5.20;99.90;;;;;;4978500;28;20033;-64
2021/03/25 00:27:47;;;;;;;89.82;38.47;;;5.10;99.90;;;;;;4980229;28;20030;-64
2021/03/25 00:30:15;;;;;;;97.95;41.45;;;5.10;99.90;;;;;;4979701;28;20044;-64
2021/03/25 00:32:41;;;;;;;96.22;40.38;;;5.00;99.90;;;;;;4979959;28;20549;-65
2021/03/25 00:35:09;;;;;;;99.18;39.85;;;5.00;99.90;;;;;;4969638;28;20510;-66
2021/03/25 00:37:35;;;;;;;94.82;40.53;;;5.00;99.90;;;;;;4961978;28;20042;-65
2021/03/25 00:40:02;;;;;;;100.30;41.00;;;5.00;99.90;;;;;;4980067;28;20062;-66
2021/03/25 00:42:28;;;;;;;103.63;41.42;;;5.00;99.90;;;;;;4979534;28;20486;-64
2021/03/25 00:44:53;;;;;;;106.25;41.20;;;5.00;99.90;;;;;;4979451;28;20112;-67
2021/03/25 00:47:19;;;;;;;100.43;40.15;;;5.10;99.90;;;;;;4961527;28;20060;-66
2021/03/25 00:49:45;;;;;;;97.05;38.35;;;5.10;99.90;;;;;;4961928;28;20188;-66
2021/03/25 00:52:11;;;;;;;102.47;39.85;;;5.10;99.90;;;;;;4979540;28;20037;-66
2021/03/25 00:54:37;;;;;;;100.32;40.22;;;5.10;99.90;;;;;;4960949;28;20764;-66
2021/03/25 00:57:03;;;;;;;92.22;40.45;;;5.00;99.90;;;;;;4970373;28;20061;-66
2021/03/25 00:59:29;;;;;;;91.63;39.42;;;5.00;99.90;;;;;;4960898;28;20038;-66
2021/03/25 01:01:54;;;;;;;98.97;40.15;;;5.00;99.90;;;;;;4976281;28;20545;-66
2021/03/25 01:04:20;;;;;;;97.43;39.95;;;5.00;99.90;;;;;;4978220;28;20565;-66
2021/03/25 01:06:46;;;;;;;95.63;39.53;;;4.90;99.90;;;;;;4960140;28;20031;-66
2021/03/25 01:09:28;;;;;;;103.57;39.92;;;4.90;99.90;;;;;;4978880;28;20026;-66
2021/03/25 01:11:56;;;;;;;101.68;40.58;;;4.80;99.90;;;;;;4958589;28;20101;-66
2021/03/25 01:14:23;;;;;;;90.28;37.72;;;4.80;99.90;;;;;;4979535;28;20030;-66
2021/03/25 01:16:51;;;;;;;94.32;38.60;;;4.80;99.90;;;;;;4978001;28;20399;-65
2021/03/25 01:19:27;;;;;;;94.30;38.42;;;4.70;99.90;;;;;;4976396;28;20046;-64
2021/03/25 01:21:54;;;;;;;100.13;38.72;;;4.60;99.90;;;;;;4975522;28;20681;-65
2021/03/25 01:24:22;;;;;;;86.40;37.22;;;4.60;99.90;;;;;;4978782;28;20145;-66
2021/03/25 01:26:49;;;;;;;91.00;37.00;;;4.60;99.90;;;;;;4960316;28;20046;-66
2021/03/25 01:29:16;;;;;;;95.65;38.03;;;4.50;99.90;;;;;;4978530;28;20043;-66
2021/03/25 01:31:42;;;;;;;92.00;37.78;;;4.40;99.90;;;;;;4960521;28;20272;-66
2021/03/25 01:34:11;;;;;;;92.03;38.63;;;4.30;99.90;;;;;;4978175;28;20034;-66
2021/03/25 01:36:37;;;;;;;90.18;37.55;;;4.20;99.90;;;;;;4978009;28;20034;-66
2021/03/25 01:39:04;;;;;;;94.65;35.67;;;4.10;99.90;;;;;;4977842;28;20041;-66
2021/03/25 01:41:35;;;;;;;95.68;38.33;;;4.00;99.90;;;;;;4960730;28;20495;-66
2021/03/25 01:44:03;;;;;;;93.38;37.80;;;4.00;99.90;;;;;;4978081;28;20034;-66
2021/03/25 01:46:38;;;;;;;103.22;37.75;;;4.00;99.90;;;;;;4960088;28;20030;-66
2021/03/25 01:49:08;;;;;;;113.00;40.63;;;4.00;99.90;;;;;;4976338;28;20038;-66
2021/03/25 01:51:45;;;;;;;107.65;42.10;;;4.10;99.90;;;;;;4960676;28;20097;-66
2021/03/25 01:54:42;;;;;;;77.93;29.00;;;4.10;99.90;;;;;;4954315;28;20038;-66
2021/03/25 01:57:40;;;;;;;96.05;36.38;;;4.10;99.90;;;;;;4972778;28;20034;-66
2021/03/25 02:00:27;;;;;;;95.63;37.58;;;4.00;99.90;;;;;;4976613;28;20035;-66
2021/03/25 02:03:26;;;;;;;87.72;35.78;;;3.90;99.90;;;;;;4976172;28;20038;-66
2021/03/25 02:06:05;;;;;;;95.47;36.63;;;3.80;99.90;;;;;;4957434;28;20529;-65
2021/03/25 02:08:50;;;;;;;90.90;34.97;;;3.70;99.90;;;;;;4978219;28;20034;-66
2021/03/25 02:11:24;;;;;;;94.03;37.40;;;3.50;99.90;;;;;;4977426;28;20030;-65
2021/03/25 02:14:11;;;;;;;87.63;38.30;;;3.50;99.90;;;;;;4978078;28;20033;-66
2021/03/25 02:16:42;;;;;;;85.40;35.70;;;3.30;99.90;;;;;;4974774;28;20500;-66
2021/03/25 02:19:57;;;;;;;98.18;37.33;;;3.20;99.90;;;;;;4974769;28;20525;-66
2021/03/25 02:22:54;;;;;;;88.57;36.42;;;3.10;99.90;;;;;;4919811;28;20124;-66
2021/03/25 02:25:27;;;;;;;81.32;34.53;;;3.10;99.90;;;;;;4973953;28;20130;-66
2021/03/25 02:28:30;;;;;;;82.57;35.00;;;3.00;99.90;;;;;;4976876;28;20053;-66
2021/03/25 02:31:02;;;;;;;95.15;36.65;;;3.00;99.90;;;;;;4958048;28;20045;-66
2021/03/25 02:33:28;;;;;;;83.80;34.92;;;2.90;99.90;;;;;;4959143;28;20030;-66
2021/03/25 02:36:07;;;;;;;86.38;35.63;;;2.90;99.90;;;;;;4967630;28;20973;-66
2021/03/25 02:38:41;;;;;;;93.47;38.53;;;2.80;99.90;;;;;;4959576;28;20035;-66
2021/03/25 02:41:15;;;;;;;87.80;37.03;;;2.70;99.90;;;;;;4967355;28;20053;-66
2021/03/25 02:43:54;;;;;;;88.47;36.90;;;2.60;99.90;;;;;;4960122;28;20033;-66
2021/03/25 02:46:30;;;;;;;88.32;37.10;;;2.50;99.90;;;;;;4973575;28;20027;-65
2021/03/25 02:49:02;;;;;;;101.32;40.60;;;2.50;99.90;;;;;;4954005;28;20494;-66
2021/03/25 02:51:44;;;;;;;91.38;37.28;;;2.30;99.90;;;;;;4959172;28;20056;-65
2021/03/25 02:54:10;;;;;;;95.43;40.50;;;2.30;99.90;;;;;;4976791;28;20823;-66
2021/03/25 02:56:48;;;;;;;103.80;39.05;;;2.30;99.90;;;;;;4974667;28;20572;-66
2021/03/25 02:59:26;;;;;;;97.78;38.50;;;2.30;99.90;;;;;;4976709;28;20038;-66
2021/03/25 03:01:57;;;;;;;99.53;38.65;;;2.20;99.90;;;;;;4976515;28;20122;-66
2021/03/25 03:04:28;;;;;;;95.93;38.08;;;2.20;99.90;;;;;;4957113;28;20026;-66
2021/03/25 03:07:07;;;;;;;98.43;37.35;;;2.20;99.90;;;;;;4958593;28;20117;-66
2021/03/25 03:09:42;;;;;;;97.03;36.72;;;2.20;99.90;;;;;;4959579;28;20823;-66
2021/03/25 03:12:20;;;;;;;97.13;36.72;;;2.30;99.90;;;;;;4966246;28;20506;-65
2021/03/25 03:14:58;;;;;;;100.82;37.42;;;2.30;99.90;;;;;;4974128;28;20092;-66
2021/03/25 03:17:34;;;;;;;99.88;37.00;;;2.30;99.90;;;;;;4961982;28;20149;-66
2021/03/25 03:20:33;;;;;;;102.70;38.63;;;2.30;99.90;;;;;;4974367;28;20052;-65
2021/03/25 03:23:10;;;;;;;111.28;40.65;;;2.20;99.90;;;;;;4958524;28;20081;-66
2021/03/25 03:25:36;;;;;;;101.20;39.60;;;2.20;99.90;;;;;;4955184;28;20762;-66
2021/03/25 03:28:26;;;;;;;101.05;38.60;;;2.20;99.90;;;;;;4976828;28;20042;-66
2021/03/25 03:31:05;;;;;;;106.68;39.25;;;2.10;99.90;;;;;;4973899;28;20541;-65
2021/03/25 03:33:43;;;;;;;;;;;2.00;99.90;;;;;;4959859;28;20457;-66
2021/03/25 03:36:16;;;;;;;104.25;38.55;;;2.00;99.90;;;;;;4976334;28;19914;-66
2021/03/25 03:38:59;;;;;;;97.35;37.92;;;1.90;99.90;;;;;;4958695;28;20174;-66
2021/03/25 03:41:31;;;;;;;95.03;38.13;;;1.80;99.90;;;;;;4959567;28;20030;-66
2021/03/25 03:44:02;;;;;;;102.28;38.92;;;1.70;99.90;;;;;;4967334;28;20429;-66
2021/03/25 03:46:31;;;;;;;101.07;39.08;;;1.70;99.90;;;;;;4970807;28;20212;-66
2021/03/25 03:49:30;;;;;;;99.82;41.10;;;1.60;99.90;;;;;;4967605;28;20030;-66
2021/03/25 03:52:00;;;;;;;100.50;39.67;;;1.60;99.90;;;;;;4940290;28;20034;-66
2021/03/25 03:54:27;;;;;;;95.25;39.50;;;1.50;99.90;;;;;;4959189;28;20034;-66
2021/03/25 03:57:12;;;;;;;96.65;39.85;;;1.50;99.90;;;;;;4954953;28;20042;-66
2021/03/25 04:00:00;;;;;;;111.78;41.25;;;1.50;99.90;;;;;;4959773;28;20034;-66
2021/03/25 04:02:42;;;;;;;99.90;38.95;;;1.50;99.90;;;;;;4977385;28;20050;-66
2021/03/25 04:05:36;;;;;;;105.75;39.75;;;1.50;99.90;;;;;;4980174;28;20039;-66
2021/03/25 04:08:22;;;;;;;107.88;38.83;;;1.50;99.90;;;;;;4966104;28;20041;-66
2021/03/25 04:11:05;;;;;;;102.63;40.00;;;1.50;99.90;;;;;;4979743;28;20389;-65
2021/03/25 04:13:37;;;;;;;107.85;38.85;;;1.50;99.90;;;;;;4979673;28;20076;-66
2021/03/25 04:16:04;;;;;;;114.63;41.65;;;1.50;99.90;;;;;;4980785;28;20058;-66
2021/03/25 04:18:48;;;;;;;121.75;42.35;;;1.60;99.90;;;;;;4981029;28;20057;-65
2021/03/25 04:21:25;;;;;;;104.18;38.40;;;1.70;99.90;;;;;;4980332;28;20754;-66
2021/03/25 04:23:53;;;;;;;117.40;39.53;;;1.70;99.90;;;;;;4979824;28;20509;-66
2021/03/25 04:26:55;;;;;;;104.15;37.42;;;1.80;99.90;;;;;;4961183;28;20042;-66
2021/03/25 04:29:39;;;;;;;118.30;38.78;;;1.80;99.90;;;;;;4977839;28;20049;-65
2021/03/25 04:32:06;;;;;;;117.78;40.97;;;1.90;99.90;;;;;;4977696;28;20812;-66
2021/03/25 04:34:32;;;;;;;126.70;44.38;;;1.90;99.90;;;;;;4962086;28;20625;-66
2021/03/25 04:36:58;;;;;;;118.80;43.33;;;1.80;99.90;;;;;;4966435;28;20034;-65
2021/03/25 04:39:25;;;;;;;111.28;43.92;;;1.70;99.90;;;;;;4979235;28;20483;-66
2021/03/25 04:41:52;;;;;;;113.38;42.60;;;1.60;99.90;;;;;;4978524;28;20054;-66
2021/03/25 04:44:45;;;;;;;118.38;43.72;;;1.60;99.90;;;;;;4979530;28;20053;-66
2021/03/25 04:47:22;;;;;;;121.35;40.75;;;1.50;99.90;;;;;;4978785;28;20109;-66
2021/03/25 04:49:57;;;;;;;118.95;42.70;;;1.60;99.90;;;;;;4979413;28;20042;-66
2021/03/25 04:52:26;;;;;;;116.75;41.63;;;1.60;99.90;;;;;;4979522;28;20595;-65
2021/03/25 04:54:52;;;;;;;116.25;39.33;;;1.60;99.90;;;;;;4979575;28;20117;-66
2021/03/25 04:57:23;;;;;;;110.78;37.30;;;1.50;99.90;;;;;;4979959;28;20031;-66
2021/03/25 04:59:50;;;;;;;102.80;39.42;;;1.50;99.90;;;;;;4979348;28;20038;-65
2021/03/25 05:06:04;;;;;;;112.83;38.00;;;1.60;99.90;;;;;;4976440;28;20190;-65
2021/03/25 05:08:33;;;;;;;114.43;43.83;;;1.60;99.90;;;;;;4975035;28;20256;-65
2021/03/25 05:11:12;;;;;;;121.50;43.03;;;1.50;99.90;;;;;;4966950;28;20040;-65
2021/03/25 05:13:44;;;;;;;117.70;43.28;;;1.40;99.90;;;;;;4974771;28;20038;-67
2021/03/25 05:16:32;;;;;;;111.78;41.63;;;1.30;99.90;;;;;;4969976;28;20053;-67
2021/03/25 05:19:01;;;;;;;114.13;43.35;;;1.30;99.90;;;;;;4960713;28;20034;-66
2021/03/25 05:21:42;;;;;;;105.40;40.72;;;1.40;99.90;;;;;;4978551;28;20034;-66
2021/03/25 05:24:26;;;;;;;106.85;39.75;;;1.40;99.90;;;;;;4960626;28;20036;-65
2021/03/25 05:27:02;;;;;;;107.05;40.60;;;1.30;99.90;;;;;;4975330;28;20082;-66
2021/03/25 05:29:29;;;;;;;111.85;40.47;;;1.30;99.90;;;;;;4975825;28;20078;-66
2021/03/25 05:31:57;;;;;;;104.40;41.53;;;1.30;99.90;;;;;;4977638;28;20042;-65
2021/03/25 05:34:25;;;;;;;114.85;41.17;;;1.30;99.90;;;;;;4975048;28;20080;-65
2021/03/25 05:36:55;;;;;;;121.65;43.17;;;1.40;99.90;;;;;;4977490;28;20145;-65
2021/03/25 05:39:21;;;;;;;123.22;43.58;;;1.50;99.90;;;;;;4977928;28;20030;-65
2021/03/25 05:42:01;;;;;;;125.68;42.00;;;1.40;99.90;;;;;;4978429;28;20030;-65
2021/03/25 05:44:55;;;;;;;111.22;38.90;;;1.50;99.90;;;;;;4975632;28;20558;-66
2021/03/25 05:47:56;;;;;;;112.68;41.42;;;1.60;99.90;;;;;;4966931;28;20045;-65
2021/03/25 05:50:39;;;;;;;115.40;40.85;;;1.70;99.90;;;;;;4978080;28;20030;-65
2021/03/25 05:53:16;;;;;;;110.38;38.53;;;1.70;99.90;;;;;;4976675;28;20045;-66
2021/03/25 05:55:51;;;;;;;99.28;36.80;;;1.70;99.90;;;;;;4973637;28;20026;-65
2021/03/25 05:58:41;;;;;;;110.10;38.08;;;1.90;99.90;;;;;;4974759;28;20041;-66
2021/03/25 06:01:12;;;;;;;102.70;37.53;;;2.00;99.90;;;;;;4974707;28;20030;-66
2021/03/25 06:03:46;;;;;;;103.38;39.58;;;2.10;99.90;;;;;;4978136;28;20380;-66
2021/03/25 06:06:22;;;;;;;108.38;40.88;;;2.10;99.90;;;;;;4975058;28;20027;-66
2021/03/25 06:09:04;;;;;;;109.72;42.47;;;2.20;99.90;;;;;;4975942;28;20030;-66
2021/03/25 06:11:33;;;;;;;101.50;38.70;;;2.30;99.90;;;;;;4976861;28;20030;-65
2021/03/25 06:14:29;;;;;;;99.53;38.90;;;2.50;99.90;;;;;;4975618;28;20030;-65
2021/03/25 06:17:03;;;;;;;109.28;40.67;;;2.60;99.90;;;;;;4974249;28;20045;-66
2021/03/25 06:19:52;;;;;;;121.15;45.28;;;2.80;99.90;;;;;;4977611;28;20038;-65
2021/03/25 06:22:28;;;;;;;100.40;38.05;;;3.10;99.90;;;;;;4975879;28;20049;-65
2021/03/25 06:24:54;;;;;;;107.45;38.95;;;3.30;99.90;;;;;;4975966;28;20096;-65
2021/03/25 06:27:51;;;;;;;106.47;39.38;;;3.50;99.90;;;;;;4962195;28;20045;-66
2021/03/25 06:30:24;;;;;;;102.55;37.22;;;3.80;99.90;;;;;;4975761;28;20034;-66
2021/03/25 06:32:57;;;;;;;100.20;37.10;;;4.10;99.90;;;;;;4977314;28;20054;-66
2021/03/25 06:35:44;;;;;;;102.47;38.60;;;4.20;99.90;;;;;;4973784;28;20073;-66
2021/03/25 06:38:18;;;;;;;106.20;36.92;;;4.40;99.90;;;;;;4976571;28;20042;-66
2021/03/25 06:41:08;;;;;;;98.78;36.95;;;4.60;99.90;;;;;;4958361;28;20061;-65
2021/03/25 06:43:52;;;;;;;87.82;33.45;;;4.80;99.90;;;;;;4959175;28;20042;-66
2021/03/25 06:46:26;;;;;;;98.60;37.22;;;5.00;99.90;;;;;;4956986;28;20038;-66
2021/03/25 06:49:01;;;;;;;84.57;34.30;;;5.10;99.90;;;;;;4973144;28;20034;-66
2021/03/25 06:51:33;;;;;;;94.97;36.38;;;5.20;99.90;;;;;;4970917;28;20042;-66
2021/03/25 06:54:23;;;;;;;78.88;32.70;;;5.30;99.90;;;;;;4976151;28;20030;-66
2021/03/25 06:56:51;;;;;;;82.70;34.83;;;5.40;99.90;;;;;;4972524;28;20569;-66
2021/03/25 06:59:33;;;;;;;78.88;32.97;;;5.50;99.90;;;;;;4958583;28;20038;-67
2021/03/25 07:02:15;;;;;;;77.35;31.58;;;5.60;99.90;;;;;;4975875;28;20109;-67
2021/03/25 07:04:45;;;;;;;76.40;32.28;;;5.80;99.90;;;;;;4974842;28;20030;-67
2021/03/25 07:07:41;;;;;;;77.22;32.78;;;6.00;99.90;;;;;;4974452;28;20120;-66
2021/03/25 07:10:11;;;;;;;84.20;34.47;;;6.10;99.90;;;;;;4952124;28;20125;-64
2021/03/25 07:12:39;;;;;;;75.45;31.92;;;6.30;99.90;;;;;;4973486;28;20133;-66
2021/03/25 07:15:07;;;;;;;78.32;32.67;;;6.50;99.90;;;;;;4974748;28;20038;-66
2021/03/25 07:17:43;;;;;;;69.40;30.98;;;6.60;99.90;;;;;;4942798;28;20042;-65
2021/03/25 07:20:22;;;;;;;78.70;32.95;;;6.70;99.90;;;;;;4975045;28;20042;-66
2021/03/25 07:23:05;;;;;;;78.97;34.35;;;6.90;99.90;;;;;;4976364;28;20031;-66
2021/03/25 07:25:33;;;;;;;77.78;33.10;;;7.30;99.90;;;;;;4957278;28;20038;-65
2021/03/25 07:28:00;;;;;;;81.68;31.88;;;7.50;99.90;;;;;;4976210;28;20045;-65
2021/03/25 07:30:37;;;;;;;78.63;31.95;;;7.60;99.90;;;;;;4962921;28;20085;-65
2021/03/25 07:33:11;;;;;;;75.85;32.88;;;7.60;99.90;;;;;;4960323;28;20758;-68
2021/03/25 07:35:40;;;;;;;74.82;33.30;;;7.80;99.90;;;;;;4977953;28;20037;-65
2021/03/25 07:38:21;;;;;;;72.25;31.58;;;7.80;99.90;;;;;;4979182;28;20438;-65
2021/03/25 07:40:47;;;;;;;77.30;31.42;;;8.00;99.90;;;;;;4979516;28;20069;-65
2021/03/25 07:43:24;;;;;;;71.07;31.48;;;8.10;99.90;;;;;;4979181;28;20034;-65
2021/03/25 07:46:19;;;;;;;76.93;31.75;;;8.40;99.90;;;;;;4976445;28;20034;-66
2021/03/25 07:49:13;;;;;;;71.25;30.88;;;8.60;99.90;;;;;;4979482;28;20034;-65
2021/03/25 07:52:06;;;;;;;72.25;30.42;;;8.80;99.90;;;;;;4959334;28;20035;-65
2021/03/25 07:54:33;;;;;;;69.63;30.63;;;9.10;99.90;;;;;;4975393;28;20057;-69
2021/03/25 07:57:08;;;;;;;72.18;30.83;;;9.30;99.90;;;;;;4975754;28;20030;-69
2021/03/25 07:59:40;;;;;;;81.65;32.38;;;9.50;99.90;;;;;;4978888;28;20038;-69
2021/03/25 08:02:34;;;;;;;76.82;31.80;;;9.80;99.90;;;;;;4975757;28;20049;-69
2021/03/25 08:05:25;;;;;;;73.60;32.08;;;9.90;99.90;;;;;;4978086;28;20938;-69
2021/03/25 08:07:58;;;;;;;72.53;32.05;;;10.10;99.90;;;;;;4960134;28;20116;-65
2021/03/25 08:10:33;;;;;;;72.43;31.13;;;10.30;99.90;;;;;;4976684;28;20052;-66
2021/03/25 08:13:16;;;;;;;76.55;33.08;;;10.50;99.90;;;;;;4976639;28;20470;-65
2021/03/25 08:15:51;;;;;;;68.32;31.17;;;10.70;99.90;;;;;;4959655;28;20052;-65
2021/03/25 08:18:29;;;;;;;68.30;30.75;;;10.80;99.90;;;;;;4960600;28;20078;-65
2021/03/25 08:21:00;;;;;;;80.25;33.95;;;11.10;99.90;;;;;;4977326;28;20086;-65
2021/03/25 08:23:45;;;;;;;69.88;32.05;;;11.40;99.90;;;;;;4974440;28;20057;-65
2021/03/25 08:26:21;;;;;;;80.57;34.25;;;11.50;99.90;;;;;;4974768;28;20085;-65
2021/03/25 08:29:01;;;;;;;74.47;33.22;;;11.70;99.90;;;;;;4971198;28;20038;-66
2021/03/25 08:31:30;;;;;;;69.35;31.42;;;11.90;99.90;;;;;;4961041;28;20145;-66
2021/03/25 08:34:21;;;;;;;77.72;34.72;;;11.80;99.90;;;;;;4980832;28;20990;-64
2021/03/25 08:36:56;;;;;;;73.57;32.70;;;12.00;99.90;;;;;;4975468;28;20038;-65
2021/03/25 08:39:36;;;;;;;;;;;12.00;99.90;;;;;;4959942;28;20030;-65
2021/03/25 08:42:27;;;;;;;81.47;33.78;;;11.90;99.90;;;;;;4978130;28;19918;-65
2021/03/25 08:45:20;;;;;;;84.22;37.25;;;12.20;99.90;;;;;;4937585;28;20585;-66
2021/03/25 08:48:07;;;;;;;79.70;36.38;;;12.40;99.90;;;;;;4977406;28;20042;-66
2021/03/25 08:50:57;;;;;;;79.60;36.60;;;12.70;99.90;;;;;;4971904;28;20049;-64
2021/03/25 08:53:32;;;;;;;77.80;36.10;;;12.80;99.90;;;;;;4977505;28;20038;-65
2021/03/25 08:56:01;;;;;;;;;;;13.00;99.90;;;;;;4956989;28;20824;-65
2021/03/25 08:58:36;;;;;;;79.28;36.88;;;13.20;99.90;;;;;;4959596;28;19918;-65
2021/03/25 09:01:08;;;;;;;84.95;38.22;;;13.40;99.80;;;;;;4977969;28;20034;-64
2021/03/25 09:03:45;;;;;;;83.82;37.42;;;13.40;99.60;;;;;;4977746;28;20111;-65
2021/03/25 09:06:24;;;;;;;82.45;38.97;;;13.40;99.10;;;;;;4976181;28;20042;-64
2021/03/25 09:08:57;;;;;;;85.38;40.22;;;13.60;99.30;;;;;;4977778;28;20904;-64
2021/03/25 09:11:22;;;;;;;94.70;38.05;;;13.70;98.80;;;;;;4978518;28;20081;-64
2021/03/25 09:13:55;;;;;;;91.47;40.33;;;14.00;98.30;;;;;;4976682;28;20120;-64
2021/03/25 09:16:28;;;;;;;86.43;39.15;;;14.00;97.70;;;;;;4955965;28;20039;-64
2021/03/25 09:18:56;;;;;;;80.75;38.60;;;13.90;99.10;;;;;;4978984;28;20041;-64
2021/03/25 09:21:25;;;;;;;86.70;38.63;;;13.90;98.40;;;;;;4977508;28;20674;-64
2021/03/25 09:24:01;;;;;;;83.43;37.80;;;14.10;98.90;;;;;;4979098;28;20034;-64
2021/03/25 09:26:27;;;;;;;93.63;39.22;;;14.50;97.90;;;;;;4977195;28;20037;-64
2021/03/25 09:29:08;;;;;;;82.57;38.65;;;14.70;96.70;;;;;;4958024;28;20036;-65
2021/03/25 09:31:37;;;;;;;93.63;40.75;;;14.70;96.60;;;;;;4977869;28;20487;-64
2021/03/25 09:34:09;;;;;;;83.95;40.10;;;14.90;96.10;;;;;;4978516;28;20407;-64
2021/03/25 09:36:35;;;;;;;85.03;38.30;;;15.00;96.40;;;;;;4974380;28;20497;-64
2021/03/25 09:39:00;;;;;;;81.10;37.17;;;15.10;95.60;;;;;;4978210;28;20026;-64
2021/03/25 09:41:29;;;;;;;86.18;38.45;;;15.10;94.90;;;;;;4977446;28;20534;-65
2021/03/25 09:44:17;;;;;;;83.68;39.75;;;15.20;95.40;;;;;;4977003;28;20119;-65
2021/03/25 09:46:47;;;;;;;81.30;37.45;;;15.60;94.20;;;;;;4976821;28;20112;-67
2021/03/25 09:49:18;;;;;;;89.03;41.83;;;15.60;93.40;;;;;;4977443;28;20026;-64
2021/03/25 09:51:46;;;;;;;76.90;36.00;;;15.60;92.80;;;;;;4977146;28;20108;-65
2021/03/25 09:54:27;;;;;;;79.45;37.38;;;15.70;92.70;;;;;;4958121;28;20116;-65
2021/03/25 09:57:24;;;;;;;83.40;37.22;;;16.00;92.20;;;;;;4970873;28;20053;-65
2021/03/25 10:00:17;;;;;;;78.75;36.92;;;16.00;92.10;;;;;;4976874;28;20083;-65
2021/03/25 10:02:51;;;;;;;76.00;37.22;;;16.40;92.70;;;;;;4976967;28;20041;-71
2021/03/25 10:05:24;;;;;;;82.63;39.00;;;16.40;91.00;;;;;;4975500;28;20042;-71
2021/03/25 10:07:57;;;;;;;77.40;36.70;;;16.30;90.80;;;;;;4977044;28;20097;-66
2021/03/25 10:10:45;;;;;;;77.30;35.95;;;16.10;90.90;;;;;;4959157;28;20041;-66
2021/03/25 10:13:15;;;;;;;83.25;38.08;;;16.20;91.20;;;;;;4957779;28;20070;-65
2021/03/25 10:15:54;;;;;;;81.88;38.35;;;16.50;91.10;;;;;;4974701;28;20042;-65
2021/03/25 10:18:25;;;;;;;81.68;38.25;;;16.60;90.50;;;;;;4957605;28;20041;-66
2021/03/25 10:21:01;;;;;;;81.65;38.78;;;16.50;90.60;;;;;;4976166;28;20482;-65
2021/03/25 10:23:29;;;;;;;77.15;37.08;;;16.50;90.40;;;;;;4976279;28;20058;-65
2021/03/25 10:26:10;;;;;;;78.95;37.33;;;16.10;91.40;;;;;;4976069;28;20037;-66
2021/03/25 10:28:40;;;;;;;76.18;38.22;;;16.30;91.00;;;;;;4975010;28;20061;-66
2021/03/25 10:31:12;;;;;;;76.97;37.08;;;16.60;90.80;;;;;;4976026;28;20045;-66
2021/03/25 10:33:38;;;;;;;75.18;36.53;;;16.50;90.90;;;;;;4974237;28;20034;-66
2021/03/25 10:36:08;;;;;;;76.13;37.20;;;16.70;90.10;;;;;;4975091;28;20115;-66
2021/03/25 10:38:58;;;;;;;79.88;36.85;;;16.60;90.60;;;;;;4976211;28;20068;-66
2021/03/25 10:41:33;;;;;;;76.20;38.03;;;16.60;90.10;;;;;;4964493;28;20426;-65
2021/03/25 10:44:26;;;;;;;75.82;37.22;;;16.70;86.60;;;;;;4976641;28;20041;-65
2021/03/25 10:46:54;;;;;;;76.80;36.75;;;16.50;87.40;;;;;;4972587;28;20073;-64
2021/03/25 10:49:27;;;;;;;78.13;37.15;;;16.50;87.70;;;;;;4967802;28;20380;-65
2021/03/25 10:51:54;;;;;;;75.03;36.45;;;16.20;90.20;;;;;;4958626;28;20142;-65
2021/03/25 10:54:19;;;;;;;75.40;36.70;;;16.80;86.20;;;;;;4957275;28;20042;-64
2021/03/25 10:56:45;;;;;;;80.43;36.03;;;17.00;85.60;;;;;;4956374;28;20120;-65
2021/03/25 10:59:11;;;;;;;75.10;36.85;;;17.20;82.10;;;;;;4976656;28;20026;-65
2021/03/25 11:01:45;;;;;;;79.68;37.30;;;17.30;82.30;;;;;;4975879;28;20125;-65
2021/03/25 11:04:23;;;;;;;75.43;38.50;;;17.40;78.60;;;;;;4976241;28;20052;-65
2021/03/25 11:06:50;;;;;;;80.70;37.45;;;17.60;81.60;;;;;;4955299;28;20777;-67
2021/03/25 11:09:24;;;;;;;81.93;39.25;;;18.00;77.30;;;;;;4966739;28;20097;-65
2021/03/25 11:12:02;;;;;;;79.53;37.97;;;18.10;76.90;;;;;;4964598;28;20129;-64
2021/03/25 11:14:35;;;;;;;78.05;36.28;;;18.00;75.80;;;;;;4981963;28;20034;-65
2021/03/25 11:17:29;;;;;;;72.07;34.58;;;17.80;75.60;;;;;;4981362;28;20118;-65
2021/03/25 11:19:59;;;;;;;75.20;34.70;;;18.10;72.20;;;;;;4970194;28;20042;-65
2021/03/25 11:22:26;;;;;;;74.28;34.28;;;18.30;70.40;;;;;;4982263;28;20079;-68
2021/03/25 11:24:52;;;;;;;72.15;33.22;;;18.10;69.30;;;;;;4979893;28;20109;-68
2021/03/25 11:27:21;;;;;;;73.28;34.35;;;18.30;68.40;;;;;;4981933;28;20038;-67
2021/03/25 11:29:57;;;;;;;73.90;33.17;;;18.30;69.40;;;;;;4959941;28;20164;-67
2021/03/25 11:32:45;;;;;;;67.95;31.92;;;18.40;67.90;;;;;;4960958;28;20085;-66
2021/03/25 11:35:43;;;;;;;74.95;32.90;;;18.20;66.10;;;;;;4980282;28;20034;-66
2021/03/25 11:38:42;;;;;;;72.25;33.33;;;18.60;66.70;;;;;;4972997;28;20067;-68
2021/03/25 11:41:34;;;;;;;77.07;34.55;;;19.10;66.60;;;;;;4980914;28;20034;-65
2021/03/25 11:44:02;;;;;;;69.10;32.70;;;19.20;62.30;;;;;;4981695;28;20479;-65
2021/03/25 11:46:37;;;;;;;72.68;31.30;;;18.60;64.90;;;;;;4980281;28;20030;-65
2021/03/25 11:49:21;;;;;;;67.30;32.53;;;18.80;65.60;;;;;;4980919;28;20038;-65
2021/03/25 11:51:58;;;;;;;66.45;31.98;;;19.20;63.20;;;;;;4982119;28;20030;-65
2021/03/25 11:54:26;;;;;;;66.10;33.10;;;19.50;65.30;;;;;;4980859;28;20498;-65
2021/03/25 11:56:56;;;;;;;70.72;34.22;;;19.90;60.90;;;;;;4980374;28;20777;-66
2021/03/25 11:59:30;;;;;;;66.43;32.75;;;20.10;60.30;;;;;;4981304;28;20041;-65
2021/03/25 12:02:27;;;;;;;71.35;33.33;;;20.10;60.60;;;;;;4982248;28;20062;-65
2021/03/25 12:04:53;;;;;;;62.42;31.08;;;20.40;60.40;;;;;;4981103;28;20129;-65
2021/03/25 12:07:25;;;;;;;68.30;33.50;;;20.30;59.30;;;;;;4980780;28;20038;-65
2021/03/25 12:10:21;;;;;;;67.18;31.48;;;20.30;59.60;;;;;;4964349;28;20141;-65
2021/03/25 12:12:47;;;;;;;70.55;32.63;;;20.10;60.00;;;;;;4982068;28;20406;-66
2021/03/25 12:15:15;;;;;;;66.45;33.38;;;20.30;59.40;;;;;;4962551;28;20042;-71
2021/03/25 12:17:56;;;;;;;65.53;32.17;;;20.50;57.70;;;;;;4979910;28;20049;-67
2021/03/25 12:20:26;;;;;;;66.63;32.58;;;20.60;57.20;;;;;;4977803;28;20907;-69
2021/03/25 12:23:01;;;;;;;69.90;34.28;;;20.50;57.20;;;;;;4975671;28;20121;-68
2021/03/25 12:25:27;;;;;;;64.32;32.83;;;20.70;57.30;;;;;;4977151;28;20140;-68
2021/03/25 12:27:53;;;;;;;66.68;32.88;;;20.80;57.40;;;;;;4977534;28;20455;-68
2021/03/25 12:30:19;;;;;;;52.08;27.15;;;21.10;56.20;;;;;;4979375;28;20033;-68
2021/03/25 12:32:45;;;;;;;56.53;30.95;;;21.20;55.00;;;;;;4978226;28;20049;-68
2021/03/25 12:35:17;;;;;;;60.30;29.38;;;21.60;54.20;;;;;;4977377;28;20054;-68
2021/03/25 12:37:45;;;;;;;62.95;32.58;;;21.60;53.60;;;;;;4960077;28;20188;-65
2021/03/25 12:40:12;;;;;;;68.50;32.85;;;21.60;54.50;;;;;;4978159;28;20044;-65
2021/03/25 12:42:37;;;;;;;66.25;31.85;;;21.30;54.30;;;;;;4978986;28;20581;-65
2021/03/25 12:45:05;;;;;;;62.72;31.27;;;21.90;53.00;;;;;;4976855;28;20049;-66
2021/03/25 12:47:30;;;;;;;67.95;30.92;;;22.00;52.80;;;;;;4960846;28;20612;-65
2021/03/25 12:50:03;;;;;;;60.03;32.22;;;22.20;52.40;;;;;;4962759;28;20034;-69
2021/03/25 12:52:30;;;;;;;61.30;29.95;;;22.10;53.30;;;;;;4980456;28;20042;-65
2021/03/25 12:54:55;;;;;;;66.60;31.92;;;21.80;52.40;;;;;;4979995;28;20049;-65
2021/03/25 12:57:27;;;;;;;60.45;30.20;;;22.00;51.60;;;;;;4980521;28;20038;-67
2021/03/25 12:59:57;;;;;;;62.88;29.98;;;21.80;51.80;;;;;;4975712;28;20546;-68
2021/03/25 13:02:23;;;;;;;57.70;28.42;;;21.70;52.40;;;;;;4978713;28;20057;-67
2021/03/25 13:04:48;;;;;;;57.25;27.08;;;21.10;52.50;;;;;;4960704;28;20554;-68
2021/03/25 13:07:14;;;;;;;52.97;27.83;;;21.20;53.00;;;;;;4977928;28;20077;-68
2021/03/25 13:09:40;;;;;;;59.55;29.52;;;21.60;52.80;;;;;;4960554;28;20105;-68
2021/03/25 13:12:22;;;;;;;70.00;32.33;;;21.10;53.50;;;;;;4978095;28;20308;-68
2021/03/25 13:14:48;;;;;;;65.32;32.05;;;21.90;53.40;;;;;;4977380;28;20118;-69